sensor_id;sensor_type;location;lat;lon;timestamp;pressure;altitude;pressure_sealevel;temperature;humidity
13058;BME280;6595;49.578;11.012;2023-05-22T00:00:23;986.149;;;15.96;73.4
13058;BME280;6595;49.578;11.012;2023-05-22T00:02:24;986.085;;;15.93;73.6
13058;BME280;6595;49.578;11.012;2023-05-22T00:04:24;986.124;;;15.86;73.4
13058;BME280;6595;49.578;11.012;2023-05-22T00:06:23;986.124;;;15.86;73.4
13058;BME280;6595;49.578;11.012;2023-05-22T00:08:23;986.034;;;15.80;73.6
13058;BME280;6595;49.578;11.012;2023-05-22T00:10:24;985.972;;;15.85;74.0
13058;BME280;6595;49.578;11.012;2023-05-22T00:12:23;986.043;;;15.82;73.9
13058;BME280;6595;49.578;11.012;2023-05-22T00:14:24;985.966;;;15.79;74.5
13058;BME280;6595;49.578;11.012;2023-05-22T00:16:23;986.022;;;15.74;74.0
13058;BME280;6595;49.578;11.012;2023-05-22T00:18:24;985.993;;;15.72;73.7
13058;BME280;6595;49.578;11.012;2023-05-22T00:20:24;985.921;;;15.70;74.1
13058;BME280;6595;49.578;11.012;2023-05-22T00:22:23;985.908;;;15.74;73.6
13058;BME280;6595;49.578;11.012;2023-05-22T00:24:24;985.908;;;15.74;73.6
13058;BME280;6595;49.578;11.012;2023-05-22T00:26:24;985.882;;;15.72;74.1
13058;BME280;6595;49.578;11.012;2023-05-22T00:28:23;985.832;;;15.73;74.1
13058;BME280;6595;49.578;11.012;2023-05-22T00:30:24;985.856;;;15.69;74.1
13058;BME280;6595;49.578;11.012;2023-05-22T00:32:24;985.808;;;15.67;74.0
13058;BME280;6595;49.578;11.012;2023-05-22T00:34:23;985.823;;;15.64;74.2
13058;BME280;6595;49.578;11.012;2023-05-22T00:36:23;985.778;;;15.63;74.6
13058;BME280;6595;49.578;11.012;2023-05-22T00:38:28;985.802;;;15.64;75.1
13058;BME280;6595;49.578;11.012;2023-05-22T00:40:24;985.810;;;15.60;74.8
13058;BME280;6595;49.578;11.012;2023-05-22T00:42:23;985.829;;;15.62;74.9
13058;BME280;6595;49.578;11.012;2023-05-22T00:44:24;985.828;;;15.59;74.6
13058;BME280;6595;49.578;11.012;2023-05-22T00:46:24;985.779;;;15.59;74.4
13058;BME280;6595;49.578;11.012;2023-05-22T00:48:24;985.838;;;15.56;74.5
13058;BME280;6595;49.578;11.012;2023-05-22T00:50:24;985.871;;;15.54;74.9
13058;BME280;6595;49.578;11.012;2023-05-22T00:52:24;985.861;;;15.56;74.8
13058;BME280;6595;49.578;11.012;2023-05-22T00:54:23;985.804;;;15.54;74.8
13058;BME280;6595;49.578;11.012;2023-05-22T00:56:24;985.826;;;15.49;74.9
13058;BME280;6595;49.578;11.012;2023-05-22T00:58:25;985.821;;;15.45;74.8
13058;BME280;6595;49.578;11.012;2023-05-22T01:00:24;985.745;;;15.42;75.3
13058;BME280;6595;49.578;11.012;2023-05-22T01:02:24;985.745;;;15.42;75.3
13058;BME280;6595;49.578;11.012;2023-05-22T01:04:24;985.776;;;15.35;75.1
13058;BME280;6595;49.578;11.012;2023-05-22T01:06:23;985.813;;;15.28;75.6
13058;BME280;6595;49.578;11.012;2023-05-22T01:08:24;985.769;;;15.25;76.4
13058;BME280;6595;49.578;11.012;2023-05-22T01:10:24;985.854;;;15.21;76.0
13058;BME280;6595;49.578;11.012;2023-05-22T01:12:30;985.757;;;15.17;76.4
13058;BME280;6595;49.578;11.012;2023-05-22T01:14:30;985.769;;;15.13;76.3
13058;BME280;6595;49.578;11.012;2023-05-22T01:16:28;985.795;;;15.08;76.6
13058;BME280;6595;49.578;11.012;2023-05-22T01:18:28;985.822;;;15.05;76.7
13058;BME280;6595;49.578;11.012;2023-05-22T01:20:27;985.792;;;15.02;76.5
13058;BME280;6595;49.578;11.012;2023-05-22T01:22:31;985.770;;;15.05;76.8
13058;BME280;6595;49.578;11.012;2023-05-22T01:24:40;985.842;;;15.02;76.8
13058;BME280;6595;49.578;11.012;2023-05-22T01:26:33;985.841;;;14.95;77.0
13058;BME280;6595;49.578;11.012;2023-05-22T01:28:37;985.834;;;14.94;77.2
13058;BME280;6595;49.578;11.012;2023-05-22T01:32:24;985.792;;;14.89;77.1
13058;BME280;6595;49.578;11.012;2023-05-22T01:34:24;985.830;;;14.89;77.1
13058;BME280;6595;49.578;11.012;2023-05-22T01:36:27;985.802;;;14.87;77.4
13058;BME280;6595;49.578;11.012;2023-05-22T01:38:23;985.802;;;14.85;77.6
13058;BME280;6595;49.578;11.012;2023-05-22T01:40:24;985.823;;;14.81;77.7
13058;BME280;6595;49.578;11.012;2023-05-22T01:42:24;985.789;;;14.78;77.6
13058;BME280;6595;49.578;11.012;2023-05-22T01:44:23;985.793;;;14.72;77.8
13058;BME280;6595;49.578;11.012;2023-05-22T01:46:24;985.846;;;14.68;78.0
13058;BME280;6595;49.578;11.012;2023-05-22T01:48:23;985.792;;;14.65;77.9
13058;BME280;6595;49.578;11.012;2023-05-22T01:50:24;985.778;;;14.65;78.0
13058;BME280;6595;49.578;11.012;2023-05-22T01:52:30;985.701;;;14.60;78.0
13058;BME280;6595;49.578;11.012;2023-05-22T01:54:31;985.751;;;14.58;78.3
13058;BME280;6595;49.578;11.012;2023-05-22T01:56:29;985.749;;;14.54;78.5
13058;BME280;6595;49.578;11.012;2023-05-22T01:58:31;985.797;;;14.45;78.6
13058;BME280;6595;49.578;11.012;2023-05-22T02:00:24;985.717;;;14.44;78.6
13058;BME280;6595;49.578;11.012;2023-05-22T02:02:24;985.678;;;14.41;78.9
13058;BME280;6595;49.578;11.012;2023-05-22T02:04:24;985.734;;;14.38;79.1
13058;BME280;6595;49.578;11.012;2023-05-22T02:06:24;985.740;;;14.34;79.3
13058;BME280;6595;49.578;11.012;2023-05-22T02:08:24;985.753;;;14.30;79.5
13058;BME280;6595;49.578;11.012;2023-05-22T02:10:25;985.740;;;14.24;79.4
13058;BME280;6595;49.578;11.012;2023-05-22T02:12:24;985.760;;;14.23;79.6
13058;BME280;6595;49.578;11.012;2023-05-22T02:14:24;985.740;;;14.25;79.4
13058;BME280;6595;49.578;11.012;2023-05-22T02:16:24;985.638;;;14.24;79.7
13058;BME280;6595;49.578;11.012;2023-05-22T02:18:25;985.671;;;14.24;79.6
13058;BME280;6595;49.578;11.012;2023-05-22T02:20:23;985.726;;;14.19;79.6
13058;BME280;6595;49.578;11.012;2023-05-22T02:22:24;985.702;;;14.20;79.8
13058;BME280;6595;49.578;11.012;2023-05-22T02:24:23;985.703;;;14.19;79.8
13058;BME280;6595;49.578;11.012;2023-05-22T02:26:23;985.752;;;14.13;80.1
13058;BME280;6595;49.578;11.012;2023-05-22T02:28:24;985.716;;;14.14;79.8
13058;BME280;6595;49.578;11.012;2023-05-22T02:30:23;985.664;;;14.20;79.8
13058;BME280;6595;49.578;11.012;2023-05-22T02:32:24;985.677;;;14.19;79.8
13058;BME280;6595;49.578;11.012;2023-05-22T02:34:24;985.762;;;14.20;79.6
13058;BME280;6595;49.578;11.012;2023-05-22T02:36:23;985.695;;;14.17;79.7
13058;BME280;6595;49.578;11.012;2023-05-22T02:38:23;985.587;;;14.12;80.2
13058;BME280;6595;49.578;11.012;2023-05-22T02:40:24;985.602;;;14.07;80.5
13058;BME280;6595;49.578;11.012;2023-05-22T02:42:23;985.550;;;14.07;80.2
13058;BME280;6595;49.578;11.012;2023-05-22T02:44:24;985.561;;;14.04;80.3
13058;BME280;6595;49.578;11.012;2023-05-22T02:46:24;985.636;;;14.00;80.1
13058;BME280;6595;49.578;11.012;2023-05-22T02:48:23;985.544;;;13.97;80.2
13058;BME280;6595;49.578;11.012;2023-05-22T02:50:24;985.625;;;13.97;80.2
13058;BME280;6595;49.578;11.012;2023-05-22T02:52:24;985.610;;;13.93;80.9
13058;BME280;6595;49.578;11.012;2023-05-22T02:54:23;985.585;;;13.93;80.7
13058;BME280;6595;49.578;11.012;2023-05-22T02:56:24;985.616;;;13.87;80.8
13058;BME280;6595;49.578;11.012;2023-05-22T02:58:23;985.602;;;13.87;81.0
13058;BME280;6595;49.578;11.012;2023-05-22T03:00:24;985.545;;;13.84;81.1
13058;BME280;6595;49.578;11.012;2023-05-22T03:02:24;985.538;;;13.84;81.1
13058;BME280;6595;49.578;11.012;2023-05-22T03:04:23;985.563;;;13.80;81.1
13058;BME280;6595;49.578;11.012;2023-05-22T03:06:24;985.535;;;13.82;81.2
13058;BME280;6595;49.578;11.012;2023-05-22T03:08:23;985.581;;;13.83;81.2
13058;BME280;6595;49.578;11.012;2023-05-22T03:10:23;985.534;;;13.87;81.0
13058;BME280;6595;49.578;11.012;2023-05-22T03:12:24;985.586;;;13.84;80.9
13058;BME280;6595;49.578;11.012;2023-05-22T03:14:23;985.555;;;13.84;81.1
13058;BME280;6595;49.578;11.012;2023-05-22T03:16:24;985.555;;;13.84;81.1
13058;BME280;6595;49.578;11.012;2023-05-22T03:18:24;985.563;;;13.74;81.3
13058;BME280;6595;49.578;11.012;2023-05-22T03:20:23;985.582;;;13.76;81.3
13058;BME280;6595;49.578;11.012;2023-05-22T03:22:24;985.624;;;13.74;81.4
13058;BME280;6595;49.578;11.012;2023-05-22T03:24:24;985.615;;;13.77;81.3
13058;BME280;6595;49.578;11.012;2023-05-22T03:26:23;985.587;;;13.79;81.1
13058;BME280;6595;49.578;11.012;2023-05-22T03:28:24;985.620;;;13.77;81.1
13058;BME280;6595;49.578;11.012;2023-05-22T03:30:23;985.570;;;13.76;81.3
13058;BME280;6595;49.578;11.012;2023-05-22T03:32:23;985.688;;;13.76;81.2
13058;BME280;6595;49.578;11.012;2023-05-22T03:34:24;985.689;;;13.79;81.0
13058;BME280;6595;49.578;11.012;2023-05-22T03:36:24;985.695;;;13.80;81.1
13058;BME280;6595;49.578;11.012;2023-05-22T03:38:23;985.665;;;13.82;80.9
13058;BME280;6595;49.578;11.012;2023-05-22T03:40:24;985.686;;;13.80;81.0
13058;BME280;6595;49.578;11.012;2023-05-22T03:42:23;985.664;;;13.76;80.6
13058;BME280;6595;49.578;11.012;2023-05-22T03:44:24;985.717;;;13.79;80.5
13058;BME280;6595;49.578;11.012;2023-05-22T03:46:24;985.609;;;13.74;80.9
13058;BME280;6595;49.578;11.012;2023-05-22T03:48:23;985.630;;;13.74;81.0
13058;BME280;6595;49.578;11.012;2023-05-22T03:50:24;985.708;;;13.74;80.9
13058;BME280;6595;49.578;11.012;2023-05-22T03:52:23;985.725;;;13.74;81.0
13058;BME280;6595;49.578;11.012;2023-05-22T03:54:24;985.532;;;13.76;81.4
13058;BME280;6595;49.578;11.012;2023-05-22T03:56:23;985.666;;;13.79;81.4
13058;BME280;6595;49.578;11.012;2023-05-22T03:58:23;985.566;;;13.79;81.2
13058;BME280;6595;49.578;11.012;2023-05-22T04:00:24;985.532;;;13.77;81.1
13058;BME280;6595;49.578;11.012;2023-05-22T04:02:23;985.640;;;13.83;81.1
13058;BME280;6595;49.578;11.012;2023-05-22T04:04:23;985.668;;;13.84;80.9
13058;BME280;6595;49.578;11.012;2023-05-22T04:06:24;985.640;;;13.86;80.7
13058;BME280;6595;49.578;11.012;2023-05-22T04:08:23;985.740;;;13.94;80.6
13058;BME280;6595;49.578;11.012;2023-05-22T04:10:23;985.641;;;13.94;80.8
13058;BME280;6595;49.578;11.012;2023-05-22T04:12:24;985.708;;;14.02;80.4
13058;BME280;6595;49.578;11.012;2023-05-22T04:14:23;985.731;;;14.04;80.4
13058;BME280;6595;49.578;11.012;2023-05-22T04:16:24;985.713;;;14.03;80.2
13058;BME280;6595;49.578;11.012;2023-05-22T04:18:24;985.748;;;14.06;80.1
13058;BME280;6595;49.578;11.012;2023-05-22T04:20:23;985.779;;;14.10;80.3
13058;BME280;6595;49.578;11.012;2023-05-22T04:22:23;985.820;;;14.10;80.4
13058;BME280;6595;49.578;11.012;2023-05-22T04:24:24;985.787;;;14.14;80.4
13058;BME280;6595;49.578;11.012;2023-05-22T04:26:23;985.827;;;14.16;80.4
13058;BME280;6595;49.578;11.012;2023-05-22T04:28:24;985.885;;;14.21;80.5
13058;BME280;6595;49.578;11.012;2023-05-22T04:30:24;985.811;;;14.25;80.3
13058;BME280;6595;49.578;11.012;2023-05-22T04:32:23;985.860;;;14.34;80.0
13058;BME280;6595;49.578;11.012;2023-05-22T04:34:24;985.849;;;14.35;79.6
13058;BME280;6595;49.578;11.012;2023-05-22T04:36:24;985.852;;;14.41;79.6
13058;BME280;6595;49.578;11.012;2023-05-22T04:38:23;985.905;;;14.48;79.5
13058;BME280;6595;49.578;11.012;2023-05-22T04:40:24;985.869;;;14.51;79.8
13058;BME280;6595;49.578;11.012;2023-05-22T04:42:23;985.884;;;14.57;79.3
13058;BME280;6595;49.578;11.012;2023-05-22T04:44:23;985.999;;;14.61;79.3
13058;BME280;6595;49.578;11.012;2023-05-22T04:46:24;985.880;;;14.71;79.1
13058;BME280;6595;49.578;11.012;2023-05-22T04:48:23;985.990;;;14.82;78.3
13058;BME280;6595;49.578;11.012;2023-05-22T04:50:23;986.003;;;14.91;77.7
13058;BME280;6595;49.578;11.012;2023-05-22T04:52:24;986.004;;;15.06;77.8
13058;BME280;6595;49.578;11.012;2023-05-22T04:54:23;986.056;;;15.12;77.4
13058;BME280;6595;49.578;11.012;2023-05-22T04:56:23;986.047;;;15.22;77.9
13058;BME280;6595;49.578;11.012;2023-05-22T04:58:24;986.023;;;15.31;76.8
13058;BME280;6595;49.578;11.012;2023-05-22T05:00:24;985.989;;;15.39;76.4
13058;BME280;6595;49.578;11.012;2023-05-22T05:02:24;986.059;;;15.50;76.4
13058;BME280;6595;49.578;11.012;2023-05-22T05:04:24;986.088;;;15.56;76.2
13058;BME280;6595;49.578;11.012;2023-05-22T05:06:23;985.995;;;15.67;75.6
13058;BME280;6595;49.578;11.012;2023-05-22T05:08:24;986.100;;;15.74;74.5
13058;BME280;6595;49.578;11.012;2023-05-22T05:10:24;986.095;;;15.89;73.8
13058;BME280;6595;49.578;11.012;2023-05-22T05:12:23;986.062;;;15.93;73.6
13058;BME280;6595;49.578;11.012;2023-05-22T05:14:24;986.037;;;16.04;72.6
13058;BME280;6595;49.578;11.012;2023-05-22T05:16:23;986.020;;;16.21;72.6
13058;BME280;6595;49.578;11.012;2023-05-22T05:18:24;986.043;;;16.25;72.6
13058;BME280;6595;49.578;11.012;2023-05-22T05:20:24;986.033;;;16.43;71.2
13058;BME280;6595;49.578;11.012;2023-05-22T05:22:23;986.050;;;16.58;71.2
13058;BME280;6595;49.578;11.012;2023-05-22T05:24:24;985.996;;;16.65;70.9
13058;BME280;6595;49.578;11.012;2023-05-22T05:26:24;985.975;;;16.79;69.9
13058;BME280;6595;49.578;11.012;2023-05-22T05:28:23;986.063;;;16.86;70.6
13058;BME280;6595;49.578;11.012;2023-05-22T05:30:24;986.119;;;17.02;70.9
13058;BME280;6595;49.578;11.012;2023-05-22T05:32:23;986.052;;;17.14;69.3
13058;BME280;6595;49.578;11.012;2023-05-22T05:34:23;986.056;;;17.21;68.4
13058;BME280;6595;49.578;11.012;2023-05-22T05:36:24;986.118;;;17.37;67.7
13058;BME280;6595;49.578;11.012;2023-05-22T05:38:23;986.069;;;17.45;67.0
13058;BME280;6595;49.578;11.012;2023-05-22T05:40:24;986.098;;;17.59;65.7
13058;BME280;6595;49.578;11.012;2023-05-22T05:42:23;986.155;;;17.62;66.7
13058;BME280;6595;49.578;11.012;2023-05-22T05:44:23;986.203;;;17.70;67.1
13058;BME280;6595;49.578;11.012;2023-05-22T05:46:24;986.203;;;17.86;67.1
13058;BME280;6595;49.578;11.012;2023-05-22T05:48:23;986.157;;;17.96;65.9
13058;BME280;6595;49.578;11.012;2023-05-22T05:50:23;986.170;;;18.03;66.1
13058;BME280;6595;49.578;11.012;2023-05-22T05:52:24;986.253;;;18.17;65.1
13058;BME280;6595;49.578;11.012;2023-05-22T05:54:23;986.284;;;18.23;64.4
13058;BME280;6595;49.578;11.012;2023-05-22T05:56:24;986.231;;;18.35;64.3
13058;BME280;6595;49.578;11.012;2023-05-22T05:58:23;986.265;;;18.43;64.8
13058;BME280;6595;49.578;11.012;2023-05-22T06:00:23;986.292;;;18.48;63.9
13058;BME280;6595;49.578;11.012;2023-05-22T06:02:24;986.256;;;18.58;63.8
13058;BME280;6595;49.578;11.012;2023-05-22T06:04:23;986.274;;;18.64;63.9
13058;BME280;6595;49.578;11.012;2023-05-22T06:06:23;986.254;;;18.71;62.5
13058;BME280;6595;49.578;11.012;2023-05-22T06:08:24;986.310;;;18.76;62.5
13058;BME280;6595;49.578;11.012;2023-05-22T06:10:24;986.355;;;18.92;62.8
13058;BME280;6595;49.578;11.012;2023-05-22T06:12:23;986.274;;;19.05;62.5
13058;BME280;6595;49.578;11.012;2023-05-22T06:14:24;986.293;;;19.12;61.8
13058;BME280;6595;49.578;11.012;2023-05-22T06:16:23;986.210;;;19.16;62.0
13058;BME280;6595;49.578;11.012;2023-05-22T06:18:23;986.312;;;19.30;61.8
13058;BME280;6595;49.578;11.012;2023-05-22T06:20:24;986.343;;;19.46;61.2
13058;BME280;6595;49.578;11.012;2023-05-22T06:22:23;986.304;;;19.52;61.2
13058;BME280;6595;49.578;11.012;2023-05-22T06:24:24;986.295;;;19.60;61.0
13058;BME280;6595;49.578;11.012;2023-05-22T06:26:24;986.220;;;19.69;61.8
13058;BME280;6595;49.578;11.012;2023-05-22T06:28:23;986.321;;;19.78;60.5
13058;BME280;6595;49.578;11.012;2023-05-22T06:30:24;986.313;;;19.88;59.9
13058;BME280;6595;49.578;11.012;2023-05-22T06:32:23;986.313;;;19.88;59.9
13058;BME280;6595;49.578;11.012;2023-05-22T06:34:23;986.216;;;20.08;58.6
13058;BME280;6595;49.578;11.012;2023-05-22T06:36:24;986.275;;;20.17;58.3
13058;BME280;6595;49.578;11.012;2023-05-22T06:38:23;986.262;;;20.32;57.5
13058;BME280;6595;49.578;11.012;2023-05-22T06:40:23;986.240;;;20.47;57.3
13058;BME280;6595;49.578;11.012;2023-05-22T06:42:24;986.253;;;20.55;56.8
13058;BME280;6595;49.578;11.012;2023-05-22T06:44:23;986.270;;;20.67;56.6
13058;BME280;6595;49.578;11.012;2023-05-22T06:46:23;986.237;;;20.75;56.1
13058;BME280;6595;49.578;11.012;2023-05-22T06:48:24;986.274;;;20.85;55.5
13058;BME280;6595;49.578;11.012;2023-05-22T06:50:23;986.229;;;20.93;55.4
13058;BME280;6595;49.578;11.012;2023-05-22T06:52:24;986.231;;;21.05;54.9
13058;BME280;6595;49.578;11.012;2023-05-22T06:54:23;986.335;;;21.09;54.9
13058;BME280;6595;49.578;11.012;2023-05-22T06:56:23;986.322;;;21.13;54.6
13058;BME280;6595;49.578;11.012;2023-05-22T06:58:24;986.276;;;21.21;53.9
13058;BME280;6595;49.578;11.012;2023-05-22T07:00:23;986.305;;;21.16;53.8
13058;BME280;6595;49.578;11.012;2023-05-22T07:02:23;986.360;;;21.35;54.3
13058;BME280;6595;49.578;11.012;2023-05-22T07:04:24;986.396;;;21.39;53.9
13058;BME280;6595;49.578;11.012;2023-05-22T07:06:23;986.388;;;21.50;53.9
13058;BME280;6595;49.578;11.012;2023-05-22T07:08:24;986.337;;;21.61;52.4
13058;BME280;6595;49.578;11.012;2023-05-22T07:10:24;986.378;;;21.66;52.7
13058;BME280;6595;49.578;11.012;2023-05-22T07:12:23;986.496;;;21.74;51.7
13058;BME280;6595;49.578;11.012;2023-05-22T07:14:24;986.459;;;21.78;51.8
13058;BME280;6595;49.578;11.012;2023-05-22T07:16:24;986.434;;;21.81;51.0
13058;BME280;6595;49.578;11.012;2023-05-22T07:18:23;986.435;;;21.86;50.6
13058;BME280;6595;49.578;11.012;2023-05-22T07:20:24;986.424;;;21.91;50.9
13058;BME280;6595;49.578;11.012;2023-05-22T07:22:23;986.359;;;21.97;49.9
13058;BME280;6595;49.578;11.012;2023-05-22T07:24:23;986.464;;;22.03;50.3
13058;BME280;6595;49.578;11.012;2023-05-22T07:26:24;986.399;;;22.08;50.4
13058;BME280;6595;49.578;11.012;2023-05-22T07:28:23;986.454;;;22.12;49.6
13058;BME280;6595;49.578;11.012;2023-05-22T07:30:24;986.521;;;22.27;50.5
13058;BME280;6595;49.578;11.012;2023-05-22T07:32:23;986.435;;;22.28;49.0
13058;BME280;6595;49.578;11.012;2023-05-22T07:34:23;986.506;;;22.20;48.5
13058;BME280;6595;49.578;11.012;2023-05-22T07:36:24;986.497;;;22.25;48.7
13058;BME280;6595;49.578;11.012;2023-05-22T07:38:24;986.449;;;22.34;48.7
13058;BME280;6595;49.578;11.012;2023-05-22T07:40:23;986.472;;;22.55;49.1
13058;BME280;6595;49.578;11.012;2023-05-22T07:42:24;986.445;;;22.61;49.1
13058;BME280;6595;49.578;11.012;2023-05-22T07:44:23;986.381;;;22.66;48.3
13058;BME280;6595;49.578;11.012;2023-05-22T07:46:23;986.416;;;22.72;47.8
13058;BME280;6595;49.578;11.012;2023-05-22T07:48:24;986.487;;;22.79;48.1
13058;BME280;6595;49.578;11.012;2023-05-22T07:50:23;986.416;;;22.78;47.6
13058;BME280;6595;49.578;11.012;2023-05-22T07:52:24;986.457;;;22.88;47.6
13058;BME280;6595;49.578;11.012;2023-05-22T07:54:23;986.450;;;22.91;47.7
13058;BME280;6595;49.578;11.012;2023-05-22T07:56:23;986.458;;;22.96;47.5
13058;BME280;6595;49.578;11.012;2023-05-22T07:58:24;986.481;;;22.96;46.8
13058;BME280;6595;49.578;11.012;2023-05-22T08:00:24;986.385;;;23.03;48.2
13058;BME280;6595;49.578;11.012;2023-05-22T08:02:23;986.475;;;23.06;47.0
13058;BME280;6595;49.578;11.012;2023-05-22T08:04:23;986.452;;;23.12;47.3
13058;BME280;6595;49.578;11.012;2023-05-22T08:06:24;986.516;;;23.22;47.9
13058;BME280;6595;49.578;11.012;2023-05-22T08:08:23;986.505;;;23.25;47.4
13058;BME280;6595;49.578;11.012;2023-05-22T08:10:24;986.495;;;23.30;47.6
13058;BME280;6595;49.578;11.012;2023-05-22T08:12:23;986.495;;;23.30;47.6
13058;BME280;6595;49.578;11.012;2023-05-22T08:14:24;986.512;;;23.16;46.2
13058;BME280;6595;49.578;11.012;2023-05-22T08:16:24;986.512;;;23.16;46.2
13058;BME280;6595;49.578;11.012;2023-05-22T08:18:23;986.411;;;23.17;46.3
13058;BME280;6595;49.578;11.012;2023-05-22T08:20:23;986.427;;;23.52;47.4
13058;BME280;6595;49.578;11.012;2023-05-22T08:22:24;986.427;;;23.52;47.4
13058;BME280;6595;49.578;11.012;2023-05-22T08:24:23;986.381;;;23.63;47.2
13058;BME280;6595;49.578;11.012;2023-05-22T08:26:24;986.470;;;23.67;46.2
13058;BME280;6595;49.578;11.012;2023-05-22T08:28:24;986.490;;;23.81;45.5
13058;BME280;6595;49.578;11.012;2023-05-22T08:30:23;986.490;;;23.81;45.5
13058;BME280;6595;49.578;11.012;2023-05-22T08:32:24;986.467;;;23.99;45.8
13058;BME280;6595;49.578;11.012;2023-05-22T08:34:24;986.464;;;24.10;45.5
13058;BME280;6595;49.578;11.012;2023-05-22T08:36:23;986.442;;;24.15;45.6
13058;BME280;6595;49.578;11.012;2023-05-22T08:38:24;986.416;;;24.03;44.5
13058;BME280;6595;49.578;11.012;2023-05-22T08:40:30;986.460;;;23.97;45.1
13058;BME280;6595;49.578;11.012;2023-05-22T08:42:23;986.410;;;24.08;45.0
13058;BME280;6595;49.578;11.012;2023-05-22T08:44:24;986.452;;;24.21;45.7
13058;BME280;6595;49.578;11.012;2023-05-22T08:46:23;986.407;;;24.38;44.7
13058;BME280;6595;49.578;11.012;2023-05-22T08:48:27;986.436;;;24.35;45.2
13058;BME280;6595;49.578;11.012;2023-05-22T08:50:24;986.385;;;24.15;44.5
13058;BME280;6595;49.578;11.012;2023-05-22T08:52:29;986.357;;;24.20;44.2
13058;BME280;6595;49.578;11.012;2023-05-22T08:54:25;986.407;;;24.31;44.0
13058;BME280;6595;49.578;11.012;2023-05-22T08:56:23;986.384;;;24.44;44.2
13058;BME280;6595;49.578;11.012;2023-05-22T08:58:23;986.300;;;24.65;44.3
13058;BME280;6595;49.578;11.012;2023-05-22T09:00:24;986.275;;;24.69;42.5
13058;BME280;6595;49.578;11.012;2023-05-22T09:02:24;986.310;;;24.62;42.3
13058;BME280;6595;49.578;11.012;2023-05-22T09:04:24;986.234;;;24.67;43.3
13058;BME280;6595;49.578;11.012;2023-05-22T09:06:23;986.322;;;24.78;42.7
13058;BME280;6595;49.578;11.012;2023-05-22T09:08:24;986.233;;;24.89;43.2
13058;BME280;6595;49.578;11.012;2023-05-22T09:10:24;986.311;;;24.98;42.8
13058;BME280;6595;49.578;11.012;2023-05-22T09:12:24;986.300;;;25.08;43.4
13058;BME280;6595;49.578;11.012;2023-05-22T09:14:23;986.269;;;25.18;42.2
13058;BME280;6595;49.578;11.012;2023-05-22T09:16:24;986.336;;;25.18;42.0
13058;BME280;6595;49.578;11.012;2023-05-22T09:18:26;986.324;;;25.30;41.0
13058;BME280;6595;49.578;11.012;2023-05-22T09:20:23;986.243;;;25.26;41.9
13058;BME280;6595;49.578;11.012;2023-05-22T09:22:34;986.314;;;25.54;41.3
13058;BME280;6595;49.578;11.012;2023-05-22T09:24:23;986.241;;;25.56;40.5
13058;BME280;6595;49.578;11.012;2023-05-22T09:26:26;986.248;;;25.63;39.3
13058;BME280;6595;49.578;11.012;2023-05-22T09:28:23;986.260;;;25.60;39.2
13058;BME280;6595;49.578;11.012;2023-05-22T09:30:23;986.294;;;25.54;39.5
13058;BME280;6595;49.578;11.012;2023-05-22T09:32:28;986.219;;;25.70;38.2
13058;BME280;6595;49.578;11.012;2023-05-22T09:34:26;986.269;;;25.84;38.4
13058;BME280;6595;49.578;11.012;2023-05-22T09:36:29;986.236;;;25.87;38.3
13058;BME280;6595;49.578;11.012;2023-05-22T09:38:26;986.245;;;25.93;37.7
13058;BME280;6595;49.578;11.012;2023-05-22T09:40:26;986.245;;;25.93;37.7
13058;BME280;6595;49.578;11.012;2023-05-22T09:42:24;986.334;;;26.11;38.4
13058;BME280;6595;49.578;11.012;2023-05-22T09:44:24;986.228;;;26.07;37.5
13058;BME280;6595;49.578;11.012;2023-05-22T09:46:23;986.320;;;26.07;37.8
13058;BME280;6595;49.578;11.012;2023-05-22T09:48:23;986.271;;;26.14;36.6
13058;BME280;6595;49.578;11.012;2023-05-22T09:50:24;986.251;;;26.08;38.6
13058;BME280;6595;49.578;11.012;2023-05-22T09:52:25;986.263;;;26.05;38.0
13058;BME280;6595;49.578;11.012;2023-05-22T09:54:24;986.204;;;26.28;37.6
13058;BME280;6595;49.578;11.012;2023-05-22T09:56:24;986.241;;;26.31;38.0
13058;BME280;6595;49.578;11.012;2023-05-22T09:58:25;986.167;;;26.47;37.5
13058;BME280;6595;49.578;11.012;2023-05-22T10:00:24;986.174;;;26.51;36.7
13058;BME280;6595;49.578;11.012;2023-05-22T10:02:25;986.174;;;26.51;36.7
13058;BME280;6595;49.578;11.012;2023-05-22T10:04:25;986.258;;;26.62;38.3
13058;BME280;6595;49.578;11.012;2023-05-22T10:06:24;986.180;;;26.69;37.4
13058;BME280;6595;49.578;11.012;2023-05-22T10:08:25;986.141;;;26.71;34.3
13058;BME280;6595;49.578;11.012;2023-05-22T10:10:24;986.106;;;26.71;35.1
13058;BME280;6595;49.578;11.012;2023-05-22T10:12:24;986.051;;;26.74;36.5
13058;BME280;6595;49.578;11.012;2023-05-22T10:14:24;986.051;;;26.74;36.5
13058;BME280;6595;49.578;11.012;2023-05-22T10:16:24;986.045;;;26.96;37.5
13058;BME280;6595;49.578;11.012;2023-05-22T10:18:23;986.045;;;26.96;37.5
13058;BME280;6595;49.578;11.012;2023-05-22T10:20:25;986.110;;;26.86;38.1
13058;BME280;6595;49.578;11.012;2023-05-22T10:22:25;986.014;;;26.96;37.9
13058;BME280;6595;49.578;11.012;2023-05-22T10:24:24;985.987;;;26.93;36.3
13058;BME280;6595;49.578;11.012;2023-05-22T10:26:24;985.964;;;27.19;37.5
13058;BME280;6595;49.578;11.012;2023-05-22T10:28:28;985.995;;;27.19;36.0
13058;BME280;6595;49.578;11.012;2023-05-22T10:30:28;985.938;;;27.45;35.7
13058;BME280;6595;49.578;11.012;2023-05-22T10:32:34;985.959;;;27.46;34.0
13058;BME280;6595;49.578;11.012;2023-05-22T10:34:28;985.971;;;27.52;33.9
13058;BME280;6595;49.578;11.012;2023-05-22T10:36:36;985.966;;;27.67;32.7
13058;BME280;6595;49.578;11.012;2023-05-22T10:38:43;986.075;;;27.87;33.4
13058;BME280;6595;49.578;11.012;2023-05-22T10:40:27;985.977;;;27.99;32.4
13058;BME280;6595;49.578;11.012;2023-05-22T10:42:28;986.044;;;28.04;31.1
13058;BME280;6595;49.578;11.012;2023-05-22T10:44:24;986.060;;;28.17;30.3
13058;BME280;6595;49.578;11.012;2023-05-22T10:46:23;986.065;;;28.21;30.3
13058;BME280;6595;49.578;11.012;2023-05-22T10:48:23;986.072;;;28.50;30.7
13058;BME280;6595;49.578;11.012;2023-05-22T10:50:24;986.015;;;28.86;27.6
13058;BME280;6595;49.578;11.012;2023-05-22T10:52:23;985.993;;;28.66;28.0
13058;BME280;6595;49.578;11.012;2023-05-22T10:54:41;986.013;;;28.83;28.8